Time;durP1;ratioP1;P1;durP2;ratioP2;P2;SDS_P1;SDS_P2;PMS_P1;PMS_P2;Temp;Humidity;BMP_temperature;BMP_pressure;BME280_temperature;BME280_humidity;BME280_pressure;Samples;Min_cycle;Max_cycle;Signal;HPM_P1;HPM_P2
2022/08/27 00:02:23;;;;;;;8.00;2.80;;;;;17.80;96997.60;;;;110958;1250;41951;-69
2022/08/27 00:04:53;;;;;;;7.40;2.50;;;;;17.80;96996.00;;;;110845;1250;41500;-68
2022/08/27 00:07:22;;;;;;;8.40;2.70;;;;;17.80;96997.20;;;;110865;1250;42114;-69
2022/08/27 00:09:51;;;;;;;8.80;3.00;;;;;17.80;96994.80;;;;110851;1250;41141;-68
2022/08/27 00:12:21;;;;;;;15.20;3.40;;;;;17.76;96995.80;;;;110819;1249;41147;-68
2022/08/27 00:14:51;;;;;;;20.20;3.20;;;;;17.70;96991.80;;;;110742;1250;41281;-68
2022/08/27 00:17:21;;;;;;;8.20;3.00;;;;;17.70;96990.80;;;;110736;1250;41155;-68
2022/08/27 00:19:52;;;;;;;14.80;3.30;;;;;17.70;96988.20;;;;110821;1250;41565;-68
2022/08/27 00:22:22;;;;;;;7.50;3.00;;;;;17.72;96991.60;;;;110786;1250;41202;-68
2022/08/27 00:24:51;;;;;;;12.80;4.10;;;;;17.80;96990.80;;;;110627;1250;41599;-68
2022/08/27 00:27:21;;;;;;;6.60;2.90;;;;;17.80;96993.80;;;;110650;1250;41262;-68
2022/08/27 00:29:51;;;;;;;8.60;3.20;;;;;17.80;96991.60;;;;110739;1249;41714;-68
2022/08/27 00:32:22;;;;;;;8.90;3.70;;;;;17.84;96995.20;;;;110920;1249;41157;-68
2022/08/27 00:34:53;;;;;;;8.10;3.10;;;;;17.90;96999.20;;;;110871;1249;41600;-68
2022/08/27 00:37:23;;;;;;;7.90;3.00;;;;;17.90;97001.20;;;;110835;1249;41168;-68
2022/08/27 00:39:54;;;;;;;9.50;2.90;;;;;17.90;97000.80;;;;110822;1249;41835;-68
2022/08/27 00:42:25;;;;;;;8.20;3.00;;;;;17.90;96995.80;;;;110790;1250;42380;-68
2022/08/27 00:44:55;;;;;;;9.10;3.00;;;;;17.90;96999.00;;;;110679;1250;42222;-68
2022/08/27 00:47:29;;;;;;;8.60;3.20;;;;;17.90;97007.20;;;;110675;1250;41718;-68
2022/08/27 00:50:04;;;;;;;9.70;3.40;;;;;17.80;97003.40;;;;110927;1250;41182;-68
2022/08/27 00:52:47;;;;;;;9.30;3.70;;;;;17.74;97000.40;;;;111338;1248;41125;-68
2022/08/27 00:55:21;;;;;;;9.90;3.70;;;;;17.70;97001.80;;;;110717;1249;41187;-68
2022/08/27 00:58:19;;;;;;;8.80;3.60;;;;;17.60;97002.80;;;;110815;1251;41228;-68
2022/08/27 01:00:51;;;;;;;8.90;3.50;;;;;17.50;97002.40;;;;110602;1250;41152;-68
2022/08/27 01:03:24;;;;;;;9.00;3.60;;;;;17.40;97005.40;;;;110762;1251;41350;-68
2022/08/27 01:05:58;;;;;;;12.70;4.20;;;;;17.26;97001.00;;;;110655;1250;41158;-69
2022/08/27 01:08:37;;;;;;;11.00;3.70;;;;;17.16;97002.80;;;;110677;1251;41148;-69
2022/08/27 01:11:07;;;;;;;11.30;3.90;;;;;17.10;97012.80;;;;110744;1250;41168;-69
2022/08/27 01:13:38;;;;;;;9.20;3.40;;;;;17.00;97010.60;;;;110686;1249;41262;-70
2022/08/27 01:16:25;;;;;;;8.00;3.10;;;;;17.00;97012.60;;;;110940;1251;41307;-69
2022/08/27 01:18:55;;;;;;;9.30;2.50;;;;;17.00;97007.60;;;;110857;1250;41261;-68
2022/08/27 01:21:30;;;;;;;7.40;3.20;;;;;17.00;97004.60;;;;110665;1250;41647;-68
2022/08/27 01:24:38;;;;;;;9.10;3.20;;;;;17.00;97007.60;;;;110690;1251;41275;-69
2022/08/27 01:27:14;;;;;;;6.70;2.80;;;;;17.00;97007.60;;;;110948;1250;41637;-69
2022/08/27 01:29:46;;;;;;;9.30;2.90;;;;;17.00;97002.20;;;;110990;1250;41190;-68
2022/08/27 01:32:29;;;;;;;9.70;2.50;;;;;17.00;96996.40;;;;111022;1250;41149;-68
2022/08/27 01:35:00;;;;;;;11.40;3.00;;;;;17.00;96992.40;;;;110947;1250;41260;-68
2022/08/27 01:37:29;;;;;;;6.50;2.40;;;;;17.00;96992.20;;;;110940;1250;41956;-67
2022/08/27 01:39:59;;;;;;;10.20;2.80;;;;;17.00;96991.60;;;;110796;1249;42236;-67
2022/08/27 01:42:34;;;;;;;7.00;2.70;;;;;17.00;96991.00;;;;110725;1249;41794;-67
2022/08/27 01:45:06;;;;;;;7.30;2.40;;;;;17.00;96988.60;;;;110755;1250;41637;-68
2022/08/27 01:47:37;;;;;;;5.50;2.30;;;;;17.00;96988.00;;;;110695;1249;41280;-67
2022/08/27 01:50:20;;;;;;;7.80;2.70;;;;;16.96;96987.60;;;;110675;1249;41240;-67
2022/08/27 01:52:50;;;;;;;5.80;2.40;;;;;16.94;96988.60;;;;110647;1249;41154;-67
2022/08/27 01:55:23;;;;;;;7.20;2.70;;;;;16.90;96990.20;;;;110752;1251;41263;-67
2022/08/27 01:57:54;;;;;;;9.10;3.50;;;;;16.90;96990.40;;;;110863;1250;41263;-68
2022/08/27 02:00:28;;;;;;;10.30;3.80;;;;;16.88;96992.40;;;;110982;1250;41269;-68
2022/08/27 02:02:59;;;;;;;10.80;3.80;;;;;16.80;96994.20;;;;110954;1249;41240;-66
2022/08/27 02:05:29;;;;;;;7.60;3.00;;;;;16.70;96995.40;;;;111019;1250;42128;-68
2022/08/27 02:07:59;;;;;;;9.10;3.30;;;;;16.70;96989.60;;;;110809;1250;41856;-67
2022/08/27 02:10:34;;;;;;;7.30;2.90;;;;;16.70;96991.20;;;;110967;1250;41307;-68
2022/08/27 02:13:05;;;;;;;7.90;2.80;;;;;16.70;96989.60;;;;110809;1250;41187;-67
2022/08/27 02:15:37;;;;;;;6.40;2.60;;;;;16.70;96993.60;;;;110813;1249;41172;-68
2022/08/27 02:18:08;;;;;;;7.10;2.80;;;;;16.70;96993.80;;;;110683;1249;41305;-68
2022/08/27 02:20:38;;;;;;;6.60;2.60;;;;;16.70;96992.80;;;;110682;1250;41200;-67
2022/08/27 02:23:09;;;;;;;9.20;3.00;;;;;16.70;96996.40;;;;110969;1250;42093;-67
2022/08/27 02:25:40;;;;;;;6.90;3.10;;;;;16.70;97000.80;;;;110829;1251;41153;-68
2022/08/27 02:28:10;;;;;;;7.00;3.00;;;;;16.70;97000.60;;;;110900;1249;41723;-67
2022/08/27 02:30:40;;;;;;;7.70;3.20;;;;;16.70;97000.00;;;;111010;1250;41161;-68
2022/08/27 02:33:10;;;;;;;8.10;3.20;;;;;16.70;96999.00;;;;110963;1250;41653;-67
2022/08/27 02:35:42;;;;;;;8.80;3.00;;;;;16.70;96994.60;;;;110941;1249;41144;-68
2022/08/27 02:38:13;;;;;;;8.70;2.90;;;;;16.70;96998.80;;;;110671;1251;41746;-68
2022/08/27 02:40:43;;;;;;;7.40;3.00;;;;;16.68;97004.00;;;;110674;1249;41268;-68
2022/08/27 02:43:13;;;;;;;10.90;4.10;;;;;16.60;96999.60;;;;110774;1250;41146;-67
2022/08/27 02:45:43;;;;;;;13.70;4.00;;;;;16.50;97004.20;;;;111008;1248;41444;-68
2022/08/27 02:48:13;;;;;;;13.30;3.90;;;;;16.40;96995.00;;;;110902;1250;41940;-68
2022/08/27 02:50:44;;;;;;;8.60;3.40;;;;;16.40;97001.60;;;;110863;1249;41427;-68
2022/08/27 02:53:14;;;;;;;7.60;2.90;;;;;16.30;97000.40;;;;110643;1249;41739;-68
2022/08/27 02:55:44;;;;;;;7.10;2.90;;;;;16.30;97000.20;;;;110700;1249;41169;-67
2022/08/27 02:58:15;;;;;;;7.30;2.90;;;;;16.30;96996.20;;;;110659;1249;41127;-68
2022/08/27 03:00:46;;;;;;;7.10;2.90;;;;;16.30;97001.60;;;;110785;1249;41687;-68
2022/08/27 03:03:16;;;;;;;;;;;;;16.28;96998.80;;;;110987;1249;40922;-68
2022/08/27 03:05:46;;;;;;;8.70;3.10;;;;;16.20;97005.20;;;;110959;1250;41369;-68
2022/08/27 03:08:16;;;;;;;8.00;3.30;;;;;16.20;97008.60;;;;110865;1250;41225;-67
2022/08/27 03:10:46;;;;;;;8.80;3.70;;;;;16.10;97007.00;;;;110831;1250;41266;-67
2022/08/27 03:13:17;;;;;;;7.30;3.10;;;;;16.10;97012.60;;;;110974;1249;41881;-68
2022/08/27 03:15:47;;;;;;;6.30;2.80;;;;;16.10;97009.20;;;;110913;1248;41426;-68
2022/08/27 03:18:17;;;;;;;6.50;2.70;;;;;16.10;97005.00;;;;110839;1250;41558;-68
2022/08/27 03:20:52;;;;;;;8.20;3.10;;;;;16.10;97006.00;;;;110765;1249;41568;-68
2022/08/27 03:23:25;;;;;;;8.10;2.80;;;;;16.10;97011.00;;;;110752;1249;41339;-68
2022/08/27 03:25:57;;;;;;;7.10;2.40;;;;;16.10;97008.60;;;;110793;1250;41159;-68
2022/08/27 03:28:31;;;;;;;8.40;2.80;;;;;16.06;97011.60;;;;110787;1249;41349;-68
2022/08/27 03:31:05;;;;;;;10.80;3.30;;;;;16.00;97014.40;;;;110774;1249;41762;-68
2022/08/27 03:33:37;;;;;;;8.30;3.00;;;;;16.00;97013.00;;;;110676;1250;41256;-67
2022/08/27 03:36:08;;;;;;;7.50;2.80;;;;;15.96;97015.00;;;;110683;1249;42382;-68
2022/08/27 03:38:38;;;;;;;6.20;2.80;;;;;15.90;97020.80;;;;110658;1249;41807;-67
2022/08/27 03:41:08;;;;;;;8.60;2.80;;;;;15.90;97016.60;;;;110765;1251;41159;-68
2022/08/27 03:43:39;;;;;;;7.10;2.60;;;;;15.90;97020.00;;;;110949;1248;40733;-68
2022/08/27 03:46:09;;;;;;;;;;;;;15.90;97020.40;;;;110819;1250;41147;-68
2022/08/27 03:48:38;;;;;;;5.80;2.40;;;;;15.90;97026.20;;;;110972;1250;41136;-68
2022/08/27 03:51:12;;;;;;;9.20;3.40;;;;;15.90;97023.00;;;;110941;1250;41392;-67
2022/08/27 03:53:45;;;;;;;8.30;2.90;;;;;15.90;97023.80;;;;110977;1250;41160;-68
2022/08/27 03:56:15;;;;;;;8.90;2.90;;;;;15.90;97024.40;;;;110967;1249;41441;-67
2022/08/27 03:58:46;;;;;;;7.80;3.00;;;;;15.90;97023.40;;;;110908;1249;41154;-68
2022/08/27 04:01:16;;;;;;;6.00;2.60;;;;;15.90;97021.20;;;;110734;1249;41154;-67
2022/08/27 04:03:46;;;;;;;6.70;2.50;;;;;15.98;97017.00;;;;110625;1249;41254;-67
2022/08/27 04:06:15;;;;;;;6.60;2.70;;;;;16.00;97013.60;;;;110643;1249;41714;-67
2022/08/27 04:08:44;;;;;;;7.30;2.80;;;;;16.10;97011.80;;;;110628;1249;41425;-67
2022/08/27 04:11:14;;;;;;;10.50;4.30;;;;;16.10;96999.20;;;;110679;1250;41208;-67
2022/08/27 04:13:43;;;;;;;10.30;4.60;;;;;16.22;96977.40;;;;110873;1249;41158;-67
2022/08/27 04:16:13;;;;;;;12.10;4.20;;;;;16.40;96973.40;;;;110841;1249;41734;-69
2022/08/27 04:18:42;;;;;;;10.00;4.00;;;;;16.60;96970.00;;;;110812;1250;41260;-69
2022/08/27 04:21:14;;;;;;;7.80;3.00;;;;;16.84;96965.80;;;;110869;1249;41615;-67
2022/08/27 04:23:43;;;;;;;8.40;3.30;;;;;17.20;96953.80;;;;110756;1249;41267;-67
2022/08/27 04:26:13;;;;;;;8.40;3.20;;;;;17.60;96949.20;;;;110679;1249;41280;-67
2022/08/27 04:28:43;;;;;;;7.90;3.20;;;;;17.96;96936.20;;;;110995;1249;41147;-68
2022/08/27 04:31:14;;;;;;;8.30;3.20;;;;;18.38;96927.60;;;;110859;1248;41152;-66
2022/08/27 04:33:44;;;;;;;8.40;3.10;;;;;18.80;96923.80;;;;110677;1249;42461;-67
2022/08/27 04:36:18;;;;;;;8.20;3.50;;;;;19.28;96937.40;;;;110597;1250;41599;-67
2022/08/27 04:38:47;;;;;;;11.10;3.90;;;;;19.72;96969.40;;;;110923;1250;41930;-67
2022/08/27 04:41:20;;;;;;;7.20;3.10;;;;;20.10;96980.60;;;;111008;1248;41178;-68
2022/08/27 04:43:53;;;;;;;9.00;3.10;;;;;20.50;96982.40;;;;110616;1251;41823;-67
2022/08/27 04:46:31;;;;;;;8.30;3.00;;;;;20.90;96981.20;;;;110778;1250;41607;-67
2022/08/27 04:49:03;;;;;;;9.00;3.60;;;;;21.30;96985.20;;;;110799;1251;41723;-67
2022/08/27 04:51:39;;;;;;;8.80;3.20;;;;;21.70;96983.20;;;;110749;1251;41158;-67
2022/08/27 04:54:09;;;;;;;10.00;3.90;;;;;22.00;96981.20;;;;109734;1249;1622931;-67
2022/08/27 04:56:38;;;;;;;8.70;3.60;;;;;22.30;96977.20;;;;110963;1249;41386;-67
2022/08/27 04:59:09;;;;;;;7.70;3.50;;;;;22.70;96977.20;;;;110803;1249;41762;-67
2022/08/27 05:01:39;;;;;;;9.90;3.20;;;;;23.00;96976.00;;;;110795;1249;41150;-68
2022/08/27 05:04:11;;;;;;;11.70;3.40;;;;;23.40;96974.60;;;;110948;1250;41594;-68
2022/08/27 05:06:44;;;;;;;9.80;4.00;;;;;23.80;96973.20;;;;110787;1250;41172;-67
2022/08/27 05:09:14;;;;;;;10.30;4.00;;;;;23.58;96970.80;;;;110683;1249;41428;-68
2022/08/27 05:11:45;;;;;;;10.10;4.70;;;;;23.50;96967.60;;;;110770;1250;41338;-68
2022/08/27 05:14:15;;;;;;;10.40;4.50;;;;;23.54;96967.80;;;;110961;1249;41165;-68
2022/08/27 05:16:46;;;;;;;11.00;4.60;;;;;23.70;96971.20;;;;110958;1250;41185;-68
2022/08/27 05:19:15;;;;;;;14.70;4.80;;;;;24.28;96970.20;;;;110881;1250;41154;-67
2022/08/27 05:21:49;;;;;;;9.80;4.20;;;;;24.70;96976.00;;;;110801;1249;41146;-68
2022/08/27 05:24:18;;;;;;;7.60;3.50;;;;;25.10;96965.40;;;;110600;1249;41193;-68
2022/08/27 05:26:48;;;;;;;9.00;4.10;;;;;25.40;96969.00;;;;110817;1249;41163;-68
2022/08/27 05:29:17;;;;;;;7.50;3.60;;;;;25.50;96965.80;;;;110894;1250;41155;-68
2022/08/27 05:31:46;;;;;;;9.80;3.60;;;;;25.84;96967.60;;;;110882;1249;41141;-68
2022/08/27 05:34:15;;;;;;;10.70;4.40;;;;;26.18;96964.80;;;;110895;1249;41126;-68
2022/08/27 05:36:53;;;;;;;9.90;4.50;;;;;25.94;96967.60;;;;110845;1248;41126;-69
2022/08/27 05:39:22;;;;;;;10.90;4.20;;;;;26.40;96970.00;;;;110772;1250;41480;-69
2022/08/27 05:41:55;;;;;;;13.40;4.70;;;;;27.00;96965.80;;;;110683;1249;41124;-68
2022/08/27 05:44:24;;;;;;;12.30;4.60;;;;;27.50;96972.80;;;;110598;1249;42419;-68
2022/08/27 05:47:10;;;;;;;10.10;4.10;;;;;28.14;96970.80;;;;110573;1249;41640;-69
2022/08/27 05:49:39;;;;;;;9.60;3.90;;;;;28.70;96966.00;;;;110710;1249;42392;-69
2022/08/27 05:52:10;;;;;;;9.40;3.80;;;;;29.18;96966.20;;;;110906;1251;41357;-69
2022/08/27 05:54:39;;;;;;;9.20;3.50;;;;;29.20;96963.00;;;;110714;1249;41258;-69
2022/08/27 05:57:09;;;;;;;10.00;3.30;;;;;29.40;96962.60;;;;110610;1249;41469;-69
2022/08/27 06:02:25;;;;;;;9.30;3.40;;;;;30.10;96960.80;;;;110810;1251;41385;-70
2022/08/27 06:04:55;;;;;;;10.30;3.70;;;;;30.32;96961.20;;;;110708;1250;41613;-69
2022/08/27 06:07:23;;;;;;;10.20;3.70;;;;;30.50;96955.80;;;;110828;1249;41602;-67
2022/08/27 06:09:53;;;;;;;7.10;2.90;;;;;30.62;96959.20;;;;110873;1249;41147;-69
2022/08/27 06:12:22;;;;;;;13.70;3.50;;;;;30.82;96961.80;;;;110875;1250;41590;-70
2022/08/27 06:14:55;;;;;;;10.40;3.30;;;;;30.64;96961.40;;;;110764;1250;41267;-69
2022/08/27 06:17:24;;;;;;;8.50;3.00;;;;;30.44;96964.80;;;;110855;1249;41165;-69
2022/08/27 06:19:53;;;;;;;7.80;3.10;;;;;30.12;96971.40;;;;110779;1250;41718;-69
2022/08/27 06:22:23;;;;;;;13.80;3.00;;;;;30.30;96973.20;;;;110684;1251;41254;-69
2022/08/27 06:24:51;;;;;;;11.20;3.60;;;;;30.40;96977.40;;;;110722;1249;41621;-69
2022/08/27 06:27:20;;;;;;;9.50;3.40;;;;;29.86;96981.20;;;;110656;1248;41152;-69
2022/08/27 06:29:49;;;;;;;9.00;3.30;;;;;29.70;96980.60;;;;110610;1249;41829;-69
2022/08/27 06:32:18;;;;;;;14.30;3.30;;;;;29.56;96984.20;;;;110739;1249;41576;-69
2022/08/27 06:34:47;;;;;;;16.30;3.40;;;;;29.64;96979.80;;;;110897;1249;41197;-69
2022/08/27 06:37:16;;;;;;;9.60;3.70;;;;;29.62;96988.00;;;;110953;1249;41159;-66
2022/08/27 06:39:45;;;;;;;12.20;3.80;;;;;29.50;96996.00;;;;111053;1248;41139;-71
2022/08/27 06:42:14;;;;;;;8.80;3.20;;;;;29.50;97002.40;;;;111024;1247;41533;-68
2022/08/27 06:44:43;;;;;;;9.50;3.60;;;;;29.00;97006.60;;;;110590;1251;42239;-69
2022/08/27 06:47:11;;;;;;;10.40;3.20;;;;;29.08;97009.00;;;;110985;1247;42406;-69
2022/08/27 06:49:41;;;;;;;10.80;3.80;;;;;29.10;97012.20;;;;110998;1249;42112;-69
2022/08/27 06:52:11;;;;;;;12.50;3.70;;;;;29.50;97017.40;;;;111058;1248;41272;-69
2022/08/27 06:54:39;;;;;;;14.10;3.80;;;;;29.34;97018.40;;;;111037;1248;41162;-69
2022/08/27 06:57:09;;;;;;;12.10;3.60;;;;;29.50;97023.20;;;;111052;1248;41175;-69
2022/08/27 06:59:38;;;;;;;11.50;3.50;;;;;29.60;97025.00;;;;110728;1248;41265;-69
2022/08/27 07:02:07;;;;;;;16.10;5.10;;;;;30.00;97025.80;;;;110833;1249;41176;-69
2022/08/27 07:04:36;;;;;;;14.60;5.00;;;;;30.10;97025.80;;;;110892;1250;42460;-69
2022/08/27 07:07:06;;;;;;;11.00;4.40;;;;;30.20;97023.40;;;;110918;1250;41169;-69
2022/08/27 07:09:35;;;;;;;;;;;;;30.80;97022.20;;;;111001;1249;41156;-70
2022/08/27 07:12:05;;;;;;;16.00;4.70;;;;;31.30;97025.00;;;;111003;1249;41318;-69
2022/08/27 07:14:33;;;;;;;15.90;5.10;;;;;31.30;97029.00;;;;110858;1249;41487;-69
2022/08/27 07:17:07;;;;;;;11.20;4.10;;;;;31.00;97027.00;;;;110878;1249;41217;-70
2022/08/27 07:19:38;;;;;;;10.10;4.30;;;;;30.90;97025.40;;;;110961;1250;41263;-69
2022/08/27 07:22:08;;;;;;;10.60;3.80;;;;;31.30;97028.80;;;;110774;1250;41298;-72
2022/08/27 07:24:37;;;;;;;13.90;4.10;;;;;31.96;97020.80;;;;110832;1250;42384;-70
2022/08/27 07:27:06;;;;;;;16.00;4.00;;;;;32.22;97026.20;;;;110911;1249;41165;-71
2022/08/27 07:29:35;;;;;;;8.80;3.30;;;;;32.20;97019.40;;;;110691;1249;41629;-71
2022/08/27 07:32:04;;;;;;;9.00;3.10;;;;;32.52;97017.40;;;;110764;1249;41132;-71
2022/08/27 07:34:34;;;;;;;15.50;3.40;;;;;33.06;97020.80;;;;110683;1247;41715;-71
2022/08/27 07:37:02;;;;;;;13.60;3.20;;;;;33.70;97019.80;;;;110879;1249;41348;-71
2022/08/27 07:39:31;;;;;;;11.20;3.80;;;;;34.10;97020.40;;;;110913;1250;41162;-71
2022/08/27 07:44:48;;;;;;;8.90;2.90;;;;;34.24;97013.40;;;;110669;1248;41154;-71
2022/08/27 07:47:17;;;;;;;8.00;2.30;;;;;34.58;97009.80;;;;110871;1249;41239;-72
2022/08/27 07:49:46;;;;;;;13.50;2.90;;;;;34.74;97011.00;;;;110765;1248;41462;-72
2022/08/27 07:52:16;;;;;;;13.50;2.90;;;;;35.20;97005.20;;;;110865;1250;41174;-72
2022/08/27 07:54:44;;;;;;;10.30;3.10;;;;;35.30;97003.80;;;;110792;1250;41154;-72
2022/08/27 07:57:13;;;;;;;10.20;2.70;;;;;35.22;97006.40;;;;110604;1249;41133;-72
2022/08/27 07:59:42;;;;;;;11.10;3.20;;;;;34.60;97007.00;;;;110845;1250;41609;-72
2022/08/27 08:02:11;;;;;;;6.70;2.60;;;;;33.84;97014.80;;;;110827;1250;41662;-72
2022/08/27 08:04:40;;;;;;;13.80;3.00;;;;;33.60;97018.00;;;;110849;1249;42016;-72
2022/08/27 08:07:10;;;;;;;7.00;2.60;;;;;33.50;97015.60;;;;110836;1250;41140;-72
2022/08/27 08:09:38;;;;;;;12.80;3.40;;;;;33.42;97018.80;;;;110739;1248;41233;-72
2022/08/27 08:12:07;;;;;;;8.60;2.90;;;;;33.90;97017.20;;;;110675;1250;41894;-72
2022/08/27 08:14:37;;;;;;;7.70;2.40;;;;;34.44;97012.80;;;;110676;1249;41299;-72
2022/08/27 08:17:05;;;;;;;10.10;2.90;;;;;35.66;97009.80;;;;110853;1250;41155;-72
2022/08/27 08:19:39;;;;;;;9.80;2.60;;;;;36.70;97006.40;;;;110969;1249;41471;-72
2022/08/27 08:22:08;;;;;;;8.50;2.90;;;;;37.78;97005.00;;;;110981;1249;41196;-73
2022/08/27 08:24:37;;;;;;;9.00;2.50;;;;;38.70;97009.00;;;;110859;1249;41259;-73
2022/08/27 08:27:06;;;;;;;8.90;2.20;;;;;39.38;97003.40;;;;110631;1250;41153;-73
2022/08/27 08:29:35;;;;;;;9.30;2.60;;;;;39.82;97001.40;;;;110673;1250;41149;-73
2022/08/27 08:32:05;;;;;;;10.80;3.10;;;;;39.90;96996.80;;;;110640;1249;42220;-73
2022/08/27 08:34:35;;;;;;;9.40;3.10;;;;;39.14;97002.00;;;;110682;1249;41140;-73
2022/08/27 08:37:06;;;;;;;8.80;2.60;;;;;38.32;97005.20;;;;110932;1249;41251;-73
2022/08/27 08:39:36;;;;;;;7.30;2.10;;;;;38.60;97001.80;;;;110941;1249;41261;-73
2022/08/27 08:42:06;;;;;;;7.80;2.40;;;;;39.22;97002.20;;;;110750;1250;42427;-73
2022/08/27 08:44:37;;;;;;;6.00;2.20;;;;;39.56;97000.60;;;;110815;1249;41269;-73
2022/08/27 08:47:13;;;;;;;6.70;2.30;;;;;39.80;96994.60;;;;110840;1250;41161;-73
2022/08/27 08:49:53;;;;;;;7.30;2.30;;;;;39.80;97002.20;;;;110849;1249;41140;-73
2022/08/27 08:52:35;;;;;;;7.90;2.90;;;;;40.20;96997.00;;;;110813;1249;41263;-73
2022/08/27 08:55:26;;;;;;;6.30;2.10;;;;;40.00;96998.00;;;;110733;1249;41535;-73
2022/08/27 08:58:28;;;;;;;6.50;2.30;;;;;40.36;96992.20;;;;110832;1249;41144;-73
2022/08/27 09:01:00;;;;;;;8.40;2.10;;;;;40.42;96994.80;;;;110680;1250;42434;-73
2022/08/27 09:03:31;;;;;;;11.40;2.60;;;;;40.80;96988.00;;;;110572;1252;41467;-73
2022/08/27 09:06:06;;;;;;;8.40;2.60;;;;;40.70;96987.60;;;;110597;1251;42522;-73
2022/08/27 09:08:39;;;;;;;5.40;2.10;;;;;39.72;96991.80;;;;110748;1250;41650;-73
2022/08/27 09:11:18;;;;;;;8.90;2.40;;;;;40.10;96986.60;;;;110757;1250;41172;-73
2022/08/27 09:14:02;;;;;;;10.40;2.40;;;;;39.80;96987.00;;;;110596;1250;42147;-73
2022/08/27 09:16:31;;;;;;;6.90;2.20;;;;;40.30;96986.40;;;;110826;1249;42397;-73
2022/08/27 09:19:01;;;;;;;9.90;2.20;;;;;40.32;96984.60;;;;110765;1249;41261;-73
2022/08/27 09:21:48;;;;;;;5.30;2.10;;;;;40.50;96979.00;;;;110606;1249;41141;-73
2022/08/27 09:24:33;;;;;;;11.10;2.40;;;;;40.10;96982.80;;;;110640;1249;41948;-73
2022/08/27 09:27:02;;;;;;;7.60;2.20;;;;;40.20;96985.40;;;;110829;1249;40934;-73
2022/08/27 09:29:31;;;;;;;8.40;2.20;;;;;40.52;96980.20;;;;110895;1248;41253;-73
2022/08/27 09:32:06;;;;;;;9.40;2.70;;;;;41.14;96979.60;;;;110668;1249;41667;-73
2022/08/27 09:34:37;;;;;;;8.70;2.30;;;;;41.70;96981.40;;;;110640;1249;42183;-73
2022/08/27 09:37:21;;;;;;;7.90;2.30;;;;;42.20;96974.40;;;;110724;1249;41728;-73
2022/08/27 09:40:00;;;;;;;8.20;2.10;;;;;42.30;96975.40;;;;110872;1249;41263;-73
2022/08/27 09:42:48;;;;;;;9.20;2.30;;;;;42.76;96971.20;;;;110531;1250;41461;-74
2022/08/27 09:45:28;;;;;;;9.90;2.20;;;;;42.46;96974.40;;;;110626;1251;41264;-72
2022/08/27 09:48:11;;;;;;;12.10;2.50;;;;;41.56;96975.00;;;;110602;1250;41610;-72
2022/08/27 09:50:50;;;;;;;8.20;2.10;;;;;40.66;96981.40;;;;110757;1251;41179;-72
2022/08/27 09:53:22;;;;;;;7.90;1.90;;;;;40.42;96981.80;;;;110791;1250;41397;-72
2022/08/27 09:55:54;;;;;;;11.30;2.20;;;;;40.76;96972.00;;;;110930;1250;41151;-72
2022/08/27 09:58:29;;;;;;;15.10;2.80;;;;;41.06;96973.80;;;;110878;1249;41377;-72
2022/08/27 10:00:58;;;;;;;7.80;2.30;;;;;40.70;96978.60;;;;110675;1249;41233;-73
2022/08/27 10:03:27;;;;;;;10.30;2.20;;;;;39.20;96978.40;;;;110864;1250;42015;-73
2022/08/27 10:06:00;;;;;;;8.80;2.10;;;;;39.24;96977.60;;;;110673;1251;41640;-73
2022/08/27 10:08:48;;;;;;;12.90;2.40;;;;;39.40;96977.80;;;;110970;1249;41365;-73
2022/08/27 10:11:26;;;;;;;9.10;2.40;;;;;38.92;96973.80;;;;110844;1250;42041;-73
2022/08/27 10:13:58;;;;;;;8.40;2.50;;;;;39.72;96975.80;;;;110873;1249;41946;-73
2022/08/27 10:16:57;;;;;;;9.00;2.20;;;;;39.24;96977.80;;;;110965;1250;41149;-73
2022/08/27 10:19:28;;;;;;;8.20;2.10;;;;;38.90;96973.80;;;;110772;1250;41255;-73
2022/08/27 10:22:12;;;;;;;8.70;2.10;;;;;38.94;96974.20;;;;110989;1249;41160;-74
2022/08/27 10:25:08;;;;;;;6.20;2.10;;;;;39.60;96974.00;;;;110905;1248;41257;-73
2022/08/27 10:27:45;;;;;;;8.20;2.20;;;;;40.62;96976.60;;;;110686;1250;42404;-74
2022/08/27 10:30:50;;;;;;;4.00;1.70;;;;;41.46;96973.00;;;;110976;1249;41261;-73
2022/08/27 10:33:30;;;;;;;8.40;2.10;;;;;42.18;96969.80;;;;110621;1250;41616;-73
2022/08/27 10:36:08;;;;;;;6.70;2.00;;;;;42.60;96968.20;;;;110640;1249;41149;-73
2022/08/27 10:39:06;;;;;;;7.10;2.20;;;;;42.60;96970.00;;;;110885;1250;41267;-73
2022/08/27 10:41:45;;;;;;;9.70;2.30;;;;;41.78;96970.20;;;;110777;1249;41267;-73
2022/08/27 10:44:38;;;;;;;6.30;2.10;;;;;41.94;96974.40;;;;110736;1250;41276;-73
2022/08/27 10:47:16;;;;;;;6.30;2.00;;;;;42.16;96973.40;;;;110729;1250;41721;-73
2022/08/27 10:50:01;;;;;;;7.60;2.20;;;;;42.50;96975.00;;;;110743;1249;41263;-73
2022/08/27 10:52:37;;;;;;;5.90;2.00;;;;;42.82;96973.40;;;;110924;1249;41141;-74
2022/08/27 10:55:25;;;;;;;9.20;2.10;;;;;43.20;96969.00;;;;110914;1249;41688;-74
2022/08/27 10:58:32;;;;;;;6.30;1.90;;;;;43.30;96965.80;;;;110837;1250;41140;-74
2022/08/27 11:01:30;;;;;;;6.80;1.80;;;;;43.00;96960.00;;;;110767;1248;41275;-74
2022/08/27 11:04:06;;;;;;;10.50;2.30;;;;;43.10;96958.00;;;;110895;1250;41455;-73
2022/08/27 11:06:42;;;;;;;8.40;1.80;;;;;43.00;96962.40;;;;110862;1249;41299;-73
2022/08/27 11:09:18;;;;;;;6.50;1.80;;;;;43.08;96960.40;;;;110672;1250;41164;-73
2022/08/27 11:11:52;;;;;;;8.50;2.00;;;;;43.20;96958.00;;;;110735;1249;41619;-74
2022/08/27 11:15:03;;;;;;;10.60;2.40;;;;;43.18;96958.00;;;;110937;1250;42157;-74
2022/08/27 11:17:43;;;;;;;9.90;2.10;;;;;43.20;96955.80;;;;110820;1250;41304;-74
2022/08/27 11:20:23;;;;;;;7.00;2.20;;;;;43.44;96956.40;;;;110694;1250;41153;-74
2022/08/27 11:23:11;;;;;;;9.40;2.00;;;;;43.88;96950.40;;;;110613;1248;41140;-74
2022/08/27 11:26:00;;;;;;;10.70;2.20;;;;;44.30;96948.20;;;;110689;1249;41267;-74
2022/08/27 11:28:36;;;;;;;8.20;1.90;;;;;44.80;96945.20;;;;110664;1249;41152;-75
2022/08/27 11:31:10;;;;;;;12.30;2.60;;;;;45.44;96942.40;;;;110926;1250;41566;-74
2022/08/27 11:33:50;;;;;;;10.20;2.20;;;;;45.98;96938.60;;;;110666;1249;41264;-74
2022/08/27 11:36:27;;;;;;;7.00;2.10;;;;;44.80;96934.20;;;;110870;1250;41954;-74
2022/08/27 11:39:02;;;;;;;10.90;2.20;;;;;45.16;96938.60;;;;110866;1250;41302;-73
2022/08/27 11:41:41;;;;;;;17.20;2.40;;;;;45.78;96937.60;;;;110866;1249;41340;-73
2022/08/27 11:44:19;;;;;;;6.40;2.00;;;;;46.32;96937.60;;;;110604;1250;41146;-74
2022/08/27 11:46:52;;;;;;;9.70;2.50;;;;;46.78;96936.80;;;;110616;1250;41153;-74
2022/08/27 11:49:26;;;;;;;9.00;2.30;;;;;47.16;96938.20;;;;110712;1249;41594;-74
2022/08/27 11:51:59;;;;;;;9.00;2.50;;;;;47.08;96937.60;;;;110674;1249;41154;-74
2022/08/27 11:54:31;;;;;;;9.80;2.20;;;;;46.32;96943.80;;;;110980;1250;41161;-74
2022/08/27 11:57:00;;;;;;;8.50;2.20;;;;;45.60;96942.00;;;;110700;1250;41141;-74
2022/08/27 11:59:31;;;;;;;;;;;;;44.90;96937.40;;;;110993;1249;42388;-74
2022/08/27 12:02:24;;;;;;;10.70;2.10;;;;;44.14;96941.80;;;;110959;1249;41176;-73
2022/08/27 12:05:06;;;;;;;11.00;2.50;;;;;43.46;96946.00;;;;110841;1249;41149;-74
2022/08/27 12:07:38;;;;;;;7.40;2.00;;;;;42.50;96938.80;;;;110642;1251;41639;-74
2022/08/27 12:10:37;;;;;;;9.10;2.10;;;;;42.76;96932.00;;;;110835;1249;41999;-75
2022/08/27 12:13:26;;;;;;;7.30;1.90;;;;;43.48;96932.40;;;;110640;1249;42151;-75
2022/08/27 12:16:11;;;;;;;5.70;1.80;;;;;44.04;96927.60;;;;110701;1251;41151;-75
2022/08/27 12:19:02;;;;;;;10.80;2.30;;;;;44.74;96926.80;;;;110818;1249;41154;-75
2022/08/27 12:21:47;;;;;;;8.10;2.20;;;;;44.80;96932.80;;;;110651;1250;41405;-74
2022/08/27 12:24:15;;;;;;;8.10;2.10;;;;;44.20;96927.60;;;;110827;1249;42160;-75
2022/08/27 12:26:59;;;;;;;11.90;2.20;;;;;44.18;96923.20;;;;110737;1249;41279;-74
2022/08/27 12:29:40;;;;;;;9.40;2.20;;;;;44.40;96921.40;;;;110625;1249;41158;-75
2022/08/27 12:32:35;;;;;;;7.70;2.20;;;;;44.50;96923.00;;;;110612;1251;41787;-75
2022/08/27 12:35:18;;;;;;;12.60;2.30;;;;;44.98;96913.60;;;;110722;1249;41155;-75
2022/08/27 12:38:19;;;;;;;10.10;2.30;;;;;45.40;96915.20;;;;110775;1249;42518;-75
2022/08/27 12:40:54;;;;;;;11.70;2.20;;;;;45.28;96913.60;;;;110868;1249;41166;-75
2022/08/27 12:43:27;;;;;;;6.00;2.00;;;;;44.96;96911.60;;;;110732;1251;41205;-74
2022/08/27 12:46:03;;;;;;;8.60;1.90;;;;;45.00;96911.40;;;;110947;1250;41965;-74